Quarryville, PA (17566)

1:44 PM EDT on July 28, 2017 (GMT -0400)
Tanglewood | | Change Station
Active Advisory: Flash Flood Watch Active Notice: Flash Flood Watch

Elev 640 ft 39.86 °N, 76.21 °W | Updated 4 seconds ago

Mostly Cloudy
Mostly Cloudy
83.3 °F
Feels Like 86 °F
N
4.5
Wind Variable Wind from SE
Gusts 6.0 mph

Today
High -- | Low -- °F
--% Chance of Precip.
Yesterday
High -- | Low -- °F
Precip. -- in
Pressure 29.85 in
Visibility 10.0 miles
Clouds Mostly Cloudy 2700 ft
Scattered Clouds 3400 ft
Heat Index 86 °F
Dew Point 68 °F
Humidity 59%
Rainfall 0.00 in
Snow Depth Not available.
5:59 AM 8:21 PM
Waxing Crescent, 32% visible
METAR KMQS 281735Z AUTO 10005G12KT 10SM -RA BKN027 SCT034 27/20 A2985 RMK AO2
Pressure 29.85 in
Visibility 10.0 miles
Clouds Mostly Cloudy 2700 ft
Scattered Clouds 3400 ft
Heat Index 86 °F
Dew Point 68 °F
Humidity 59%
Rainfall 0.00 in
Snow Depth Not available.
5:59 AM 8:21 PM
Waxing Crescent, 32% visible
METAR KMQS 281735Z AUTO 10005G12KT 10SM -RA BKN027 SCT034 27/20 A2985 RMK AO2

Get Your Daily Forecast Email!

Thanks for signing up!

Be on the lookout for a verification email in your inbox.

You'll start receiving severe weather alerts in your inbox..

×

10-Day Weather Forecast

Almanac

Astronomy

Jul. 28, 2017 Rise Set
Actual Time
Civil Twilight
Nautical Twilight
Astronomical Twilight
Moon
Length of Visible Light
Length of Day
Tomorrow will be .
, % of the Moon is Illuminated

Today's Extremes

State Highs State Lows

Community

WunderPhotos

Category 6

Welcome to Category 6. This is the collective home for Weather Underground's featured writeups by Dr. Jeff Masters (right), Bob Henson (left), Chris Burt, and other regular contributors.

Nearby

Air Quality

  Air Quality AQ Index Pollutant
Not available.

Snow Depth

Station Depth Elevation

Earthquake Activity

City Distance Mag. Time & Date
Minimum magnitude displayed is 2.5.

Coastal Water Temperatures

Place Temperature

Stations

Nearby Weather Stations

Station Location Temp. Windchill Dew Point Humidity Wind Precip. Elev Updated Type
                   

Watches & Warnings

Flash Flood Watch
Issued: 1:48 AM EDT Jul. 28, 2017 – National Weather Service

... Flash Flood Watch remains in effect from this afternoon
through Saturday afternoon...

The Flash Flood Watch continues for

* a portion of central Pennsylvania, including the following
areas, Adams, Bedford, Blair, Cambria, Cumberland, Dauphin,
Franklin, Fulton, Huntingdon, Juniata, Lancaster, Lebanon,
Mifflin, Perry, Somerset, and York.

* From this afternoon through Saturday afternoon

* heavy rainfall of two to three inches with local amounts of
over four inches is possible, especially in higher terrains.
Areas that received the heavy rainfall last weekend are most
susceptible to flooding.

Precautionary/preparedness actions...

Review flood safety and preparedness information at
weather.Gov/flood.



Devoir